Time;durP1;ratioP1;P1;durP2;ratioP2;P2;SDS_P1;SDS_P2;PMS_P1;PMS_P2;Temp;Humidity;BMP_temperature;BMP_pressure;BME280_temperature;BME280_humidity;BME280_pressure;Samples;Min_cycle;Max_cycle;Signal;HPM_P1;HPM_P2
2022/02/04 00:24:43;;;;;;;;;;;20.00;99.90;;;;;;5094084;28;20393;-79
2022/02/04 00:27:16;;;;;;;;;;;19.60;99.90;;;;;;5093628;28;20338;-79
2022/02/04 00:29:56;;;;;;;;;;;19.50;99.90;;;;;;5092578;28;19954;-77
2022/02/04 00:32:26;;;;;;;;;;;19.50;99.90;;;;;;5093837;28;19912;-78
2022/02/04 00:35:03;;;;;;;;;;;19.60;99.90;;;;;;5093665;28;19908;-77
2022/02/04 00:37:45;;;;;;;;;;;19.60;99.90;;;;;;5093902;28;19908;-78
2022/02/04 00:40:17;;;;;;;;;;;19.60;99.90;;;;;;5093704;28;20362;-79
2022/02/04 00:42:44;;;;;;;;;;;19.50;99.90;;;;;;5093540;28;20018;-79
2022/02/04 00:45:21;;;;;;;;;;;19.20;99.90;;;;;;5093381;28;19932;-80
2022/02/04 00:47:55;;;;;;;;;;;18.70;99.90;;;;;;5093379;28;19908;-79
2022/02/04 00:50:31;;;;;;;;;;;18.40;99.90;;;;;;5093044;28;20363;-79
2022/02/04 00:53:11;;;;;;;;;;;18.50;99.90;;;;;;5093154;28;19995;-80
2022/02/04 00:55:48;;;;;;;;;;;18.50;99.90;;;;;;5093423;28;19909;-79
2022/02/04 01:13:12;;;;;;;;;;;19.10;99.90;;;;;;5093184;28;19915;-80
2022/02/04 01:28:26;;;;;;;;;;;22.10;99.90;;;;;;5092898;28;19908;-79
2022/02/04 01:30:53;;;;;;;;;;;22.40;99.90;;;;;;5092577;28;19916;-78
2022/02/04 01:33:20;;;;;;;;;;;22.40;99.90;;;;;;5092310;28;20042;-79
2022/02/04 01:35:47;;;;;;;;;;;22.40;99.90;;;;;;5092447;28;19908;-78
2022/02/04 01:38:14;;;;;;;;;;;22.00;99.90;;;;;;5092335;28;19947;-78
2022/02/04 01:40:41;;;;;;;;;;;21.80;99.90;;;;;;5091231;28;20345;-78
2022/02/04 01:43:07;;;;;;;;;;;21.70;99.90;;;;;;5092368;28;19935;-77
2022/02/04 01:45:34;;;;;;;;;;;21.50;99.90;;;;;;5092509;28;19916;-77
2022/02/04 01:48:01;;;;;;;;;;;21.40;99.90;;;;;;5092212;28;20410;-77
2022/02/04 01:50:31;;;;;;;;;;;21.10;99.90;;;;;;5091421;28;19915;-78
2022/02/04 01:53:00;;;;;;;;;;;21.00;99.90;;;;;;5092759;28;19961;-77
2022/02/04 01:55:27;;;;;;;;;;;20.80;99.90;;;;;;5092567;28;19908;-78
2022/02/04 01:57:54;;;;;;;;;;;20.90;99.90;;;;;;5092149;28;19953;-78
2022/02/04 02:00:21;;;;;;;;;;;21.00;99.90;;;;;;5092347;28;19920;-78
2022/02/04 02:02:47;;;;;;;;;;;21.00;99.90;;;;;;5093545;28;19916;-77
2022/02/04 02:05:14;;;;;;;;;;;21.30;99.90;;;;;;5096630;28;20329;-78
2022/02/04 02:07:46;;;;;;;;;;;21.50;99.90;;;;;;5096429;28;20286;-79
2022/02/04 02:10:16;;;;;;;;;;;21.40;99.90;;;;;;5096519;28;19909;-77
2022/02/04 02:42:31;;;;;;;;;;;21.90;99.90;;;;;;5095636;28;20390;-77
2022/02/04 03:03:08;;;;;;;;;;;22.50;99.90;;;;;;5095385;28;20378;-76
2022/02/04 03:05:35;;;;;;;;;;;22.50;99.90;;;;;;5095274;28;19916;-76
2022/02/04 03:08:02;;;;;;;;;;;21.90;99.90;;;;;;5094945;28;19912;-75
2022/02/04 03:10:29;;;;;;;;;;;21.10;99.90;;;;;;5095213;28;20374;-75
2022/02/04 03:12:55;;;;;;;;;;;20.70;99.90;;;;;;5093796;28;19943;-76
2022/02/04 03:15:22;;;;;;;;;;;20.20;99.90;;;;;;5093562;28;20421;-75
2022/02/04 03:18:03;;;;;;;;;;;19.70;99.90;;;;;;5094847;28;20275;-75
2022/02/04 03:20:30;;;;;;;;;;;19.20;99.90;;;;;;5095307;28;19908;-76
2022/02/04 03:22:58;;;;;;;;;;;18.80;99.90;;;;;;5094987;28;20256;-75
2022/02/04 03:25:25;;;;;;;;;;;18.70;99.90;;;;;;5095006;28;19908;-77
2022/02/04 03:27:57;;;;;;;;;;;18.50;99.90;;;;;;5094780;28;19965;-76
2022/02/04 03:30:31;;;;;;;;;;;18.30;99.90;;;;;;5093455;28;19908;-75
2022/02/04 03:33:02;;;;;;;;;;;18.10;99.90;;;;;;5095157;28;19915;-74
2022/02/04 03:35:31;;;;;;;;;;;18.00;99.90;;;;;;5094996;28;19912;-77
2022/02/04 03:37:58;;;;;;;;;;;17.80;99.90;;;;;;5094387;28;20408;-76
2022/02/04 03:40:25;;;;;;;;;;;17.80;99.90;;;;;;5094881;28;19908;-76
2022/02/04 03:42:52;;;;;;;;;;;17.80;99.90;;;;;;5095491;28;19916;-75
2022/02/04 03:45:20;;;;;;;;;;;17.80;99.90;;;;;;5094923;28;19908;-70
2022/02/04 03:47:46;;;;;;;;;;;17.50;99.90;;;;;;5094453;28;19994;-73
2022/02/04 03:50:13;;;;;;;;;;;17.40;99.90;;;;;;5094952;28;20270;-75
2022/02/04 03:52:40;;;;;;;;;;;17.30;99.90;;;;;;5094189;28;19908;-74
2022/02/04 03:55:08;;;;;;;;;;;17.40;99.90;;;;;;5094375;28;19915;-72
2022/02/04 03:57:38;;;;;;;;;;;17.60;99.90;;;;;;5094185;28;19912;-73
2022/02/04 04:00:07;;;;;;;;;;;17.70;99.90;;;;;;5094180;28;19920;-76
2022/02/04 04:02:34;;;;;;;;;;;17.80;99.90;;;;;;5131488;27;20007;-76
2022/02/04 04:05:00;;;;;;;;;;;17.90;99.90;;;;;;5094773;28;20330;-75
2022/02/04 04:07:28;;;;;;;;;;;17.90;99.90;;;;;;5096032;28;19908;-75
2022/02/04 04:10:03;;;;;;;;;;;17.90;99.90;;;;;;5096546;28;19933;-75
2022/02/04 04:12:30;;;;;;;;;;;17.90;99.90;;;;;;5092975;28;19934;-75
2022/02/04 04:15:04;;;;;;;;;;;18.00;99.90;;;;;;5094353;28;19956;-75
2022/02/04 04:17:39;;;;;;;;;;;18.10;99.90;;;;;;5096147;28;19908;-76
2022/02/04 04:20:09;;;;;;;;;;;18.30;99.90;;;;;;5094980;28;19912;-74
2022/02/04 04:22:36;;;;;;;;;;;18.30;99.90;;;;;;5094213;28;20387;-74
2022/02/04 04:25:03;;;;;;;;;;;18.30;99.90;;;;;;5093508;28;20393;-75
2022/02/04 04:27:31;;;;;;;;;;;18.10;99.90;;;;;;5093535;28;19908;-76
2022/02/04 04:29:57;;;;;;;;;;;18.10;99.90;;;;;;5093416;28;19966;-77
2022/02/04 04:32:24;;;;;;;;;;;18.10;99.90;;;;;;5093718;28;19915;-75
2022/02/04 04:34:51;;;;;;;;;;;18.10;99.90;;;;;;5093392;28;19947;-76
2022/02/04 04:37:18;;;;;;;;;;;18.10;99.90;;;;;;5093425;28;19948;-75
2022/02/04 04:39:59;;;;;;;;;;;18.10;99.90;;;;;;5093469;28;20045;-74
2022/02/04 04:43:07;;;;;;;;;;;17.90;99.90;;;;;;5093194;28;20482;-76
2022/02/04 05:27:05;;;;;;;;;;;20.60;99.90;;;;;;5092534;28;19915;-74
2022/02/04 05:29:24;;;;;;;;;;;20.90;99.90;;;;;;5092368;28;19908;-73
2022/02/04 05:31:50;;;;;;;;;;;21.00;99.90;;;;;;5092491;28;20466;-73
2022/02/04 05:34:19;;;;;;;;;;;21.30;99.90;;;;;;5092439;28;19960;-74
2022/02/04 05:36:48;;;;;;;;;;;21.40;99.90;;;;;;5091403;28;20338;-75
2022/02/04 05:39:22;;;;;;;;;;;21.50;99.90;;;;;;5092244;28;19978;-74
2022/02/04 05:41:50;;;;;;;;;;;21.70;99.90;;;;;;5084732;28;19916;-74
2022/02/04 05:44:17;;;;;;;;;;;21.90;99.90;;;;;;5070461;28;19912;-73
2022/02/04 05:47:06;;;;;;;;;;;22.00;99.90;;;;;;5071671;28;19909;-74
2022/02/04 05:49:35;;;;;;;;;;;21.80;99.90;;;;;;5070561;28;19908;-72
2022/02/04 05:52:10;;;;;;;;;;;21.60;99.90;;;;;;5069261;28;19927;-73
2022/02/04 05:54:49;;;;;;;;;;;21.60;99.90;;;;;;5069914;28;19909;-74
2022/02/04 05:57:22;;;;;;;;;;;21.60;99.90;;;;;;5070127;28;19916;-73
2022/02/04 06:02:38;;;;;;;;;;;21.60;99.90;;;;;;5070282;28;20379;-72
2022/02/04 06:05:38;;;;;;;;;;;21.60;99.90;;;;;;5069546;28;19912;-74
2022/02/04 06:09:04;;;;;;;;;;;21.60;99.90;;;;;;5069503;28;19908;-73
2022/02/04 06:24:18;;;;;;;;;;;21.30;99.90;;;;;;5070276;28;19924;-75
2022/02/04 06:26:45;;;;;;;;;;;21.40;99.90;;;;;;5102132;28;19909;-72
2022/02/04 06:29:11;;;;;;;;;;;21.40;99.90;;;;;;5069250;28;19917;-72
2022/02/04 06:31:38;;;;;;;;;;;21.30;99.90;;;;;;5069159;28;19916;-73
2022/02/04 06:34:05;;;;;;;;;;;21.10;99.90;;;;;;5069232;28;20356;-73
2022/02/04 06:36:32;;;;;;;;;;;20.90;99.90;;;;;;5069698;28;19912;-74
2022/02/04 06:38:58;;;;;;;;;;;20.70;99.90;;;;;;5069537;28;19928;-74
2022/02/04 06:41:25;;;;;;;;;;;20.70;99.90;;;;;;5069596;28;19999;-73
2022/02/04 06:43:51;;;;;;;;;;;20.60;99.90;;;;;;5069444;28;19986;-73
2022/02/04 06:46:18;;;;;;;;;;;20.50;99.90;;;;;;5069638;28;19927;-72
2022/02/04 06:48:49;;;;;;;;;;;20.60;99.90;;;;;;5070619;28;20394;-74
2022/02/04 06:51:16;;;;;;;;;;;20.70;99.90;;;;;;5073004;28;20313;-73
2022/02/04 06:53:42;;;;;;;;;;;20.80;99.90;;;;;;5072953;28;20029;-71
2022/02/04 06:56:09;;;;;;;;;;;21.00;99.90;;;;;;5072629;28;20440;-73
2022/02/04 06:58:35;;;;;;;;;;;21.00;99.90;;;;;;5072954;28;19921;-72
2022/02/04 07:01:02;;;;;;;;;;;21.00;99.90;;;;;;5072646;28;19990;-72
2022/02/04 07:03:31;;;;;;;;;;;21.00;99.90;;;;;;5072778;28;19930;-72
2022/02/04 07:05:59;;;;;;;;;;;20.90;99.90;;;;;;5072586;28;20326;-74
2022/02/04 07:11:46;;;;;;;;;;;20.80;99.90;;;;;;5095645;28;19962;-73
2022/02/04 07:22:09;;;;;;;;;;;20.80;99.90;;;;;;5072462;28;19923;-73
2022/02/04 07:24:36;;;;;;;;;;;20.70;99.90;;;;;;5072375;28;19917;-73
2022/02/04 07:27:03;;;;;;;;;;;20.70;99.90;;;;;;5071966;28;19936;-73
2022/02/04 07:29:30;;;;;;;;;;;20.70;99.90;;;;;;5072343;28;19928;-73
2022/02/04 07:31:59;;;;;;;;;;;20.80;99.90;;;;;;5072128;28;19908;-73
2022/02/04 07:42:31;;;;;;;;;;;20.80;99.90;;;;;;5072256;28;19970;-74
2022/02/04 07:44:58;;;;;;;;;;;20.80;99.90;;;;;;5072039;28;19920;-72
2022/02/04 07:47:24;;;;;;;;;;;20.80;99.90;;;;;;5071985;28;20516;-73
2022/02/04 07:49:52;;;;;;;;;;;20.80;99.90;;;;;;5071803;28;19950;-73
2022/02/04 07:52:18;;;;;;;;;;;20.80;99.90;;;;;;5071358;28;19912;-73
2022/02/04 07:54:46;;;;;;;;;;;20.90;99.90;;;;;;5072269;28;19954;-73
2022/02/04 07:57:12;;;;;;;;;;;20.80;99.90;;;;;;5071450;28;19962;-74
2022/02/04 07:59:39;;;;;;;;;;;20.80;99.90;;;;;;5069540;28;19920;-72
2022/02/04 08:02:06;;;;;;;;;;;20.80;99.90;;;;;;5070874;28;19924;-72
2022/02/04 08:04:35;;;;;;;;;;;20.80;99.90;;;;;;5071693;28;20376;-74
2022/02/04 08:07:06;;;;;;;;;;;20.80;99.90;;;;;;5073434;28;19955;-73
2022/02/04 08:14:48;;;;;;;;;;;20.70;99.90;;;;;;5073375;28;19908;-73
2022/02/04 08:20:12;;;;;;;;;;;20.70;99.90;;;;;;5073340;28;19908;-73
2022/02/04 08:22:59;;;;;;;;;;;20.60;99.90;;;;;;5072271;28;19912;-73
2022/02/04 08:34:04;;;;;;;;;;;20.50;99.90;;;;;;5073252;28;19916;-74
2022/02/04 08:52:48;;;;;;;;;;;20.30;99.90;;;;;;5072555;28;20054;-74
2022/02/04 08:55:23;;;;;;;;;;;20.30;99.90;;;;;;5072613;28;19908;-73
2022/02/04 08:58:03;;;;;;;;;;;20.30;99.90;;;;;;5072420;28;19909;-73
2022/02/04 09:00:40;;;;;;;;;;;20.30;99.90;;;;;;5072717;28;19920;-74
2022/02/04 09:03:15;;;;;;;;;;;20.30;99.90;;;;;;5072555;28;20434;-73
2022/02/04 09:05:45;;;;;;;;;;;20.30;99.90;;;;;;5072669;28;19965;-75
2022/02/04 09:08:28;;;;;;;;;;;20.20;99.90;;;;;;5072163;28;20279;-74
2022/02/04 09:11:01;;;;;;;;;;;20.30;99.90;;;;;;5072502;28;19916;-74
2022/02/04 09:19:09;;;;;;;;;;;20.20;99.90;;;;;;5072303;28;20015;-74
2022/02/04 09:24:12;;;;;;;;;;;20.20;99.90;;;;;;5071884;28;20368;-74
2022/02/04 09:26:39;;;;;;;;;;;20.20;99.90;;;;;;5072071;28;19978;-73
2022/02/04 09:29:06;;;;;;;;;;;20.20;99.90;;;;;;5072530;28;19916;-74
2022/02/04 09:31:35;;;;;;;;;;;20.20;99.90;;;;;;5072696;28;19909;-76
2022/02/04 09:34:02;;;;;;;;;;;20.20;99.90;;;;;;5072324;28;19912;-74
2022/02/04 09:36:29;;;;;;;;;;;20.10;99.90;;;;;;5072392;28;19951;-75
2022/02/04 09:38:58;;;;;;;;;;;20.20;99.90;;;;;;5072443;28;20403;-74
2022/02/04 09:41:24;;;;;;;;;;;20.20;99.90;;;;;;5072418;28;20529;-74
2022/02/04 09:43:51;;;;;;;;;;;20.10;99.90;;;;;;5069842;28;19924;-72
2022/02/04 09:46:19;;;;;;;;;;;20.10;99.90;;;;;;5070371;28;19989;-74
2022/02/04 09:48:50;;;;;;;;;;;20.10;99.90;;;;;;5069013;28;20321;-74
2022/02/04 09:51:21;;;;;;;;;;;20.10;99.90;;;;;;5102334;28;20354;-75
2022/02/04 10:17:25;;;;;;;;;;;20.00;99.90;;;;;;5057884;28;19908;-74
2022/02/04 10:19:36;;;;;;;;;;;20.00;99.90;;;;;;5066785;28;19967;-73
2022/02/04 10:22:04;;;;;;;;;;;20.10;99.90;;;;;;5069580;28;19996;-73
2022/02/04 10:24:31;;;;;;;;;;;20.10;99.90;;;;;;5071765;28;19958;-73
2022/02/04 10:27:17;;;;;;;;;;;20.20;99.90;;;;;;5073521;28;20378;-73
2022/02/04 10:29:54;;;;;;;;;;;20.30;99.90;;;;;;5073816;28;20278;-74
2022/02/04 10:32:25;;;;;;;;;;;20.20;99.90;;;;;;5073541;28;19908;-74
2022/02/04 10:35:12;;;;;;;;;;;20.10;99.90;;;;;;5073474;28;20349;-73
2022/02/04 10:37:41;;;;;;;;;;;20.10;99.90;;;;;;5072365;28;19985;-74
2022/02/04 10:40:27;;;;;;;;;;;20.10;99.90;;;;;;5073380;28;19966;-73
2022/02/04 10:45:32;;;;;;;;;;;20.00;99.90;;;;;;5073439;28;19912;-74
2022/02/04 10:48:14;;;;;;;;;;;20.10;99.90;;;;;;5073171;28;19913;-74
2022/02/04 10:53:56;;;;;;;;;;;20.10;99.90;;;;;;5073034;28;19916;-72
2022/02/04 11:04:31;;;;;;;;;;;20.10;99.90;;;;;;5073264;28;19943;-73
2022/02/04 11:31:50;;;;;;;;;;;19.90;99.90;;;;;;5072575;28;19916;-75
2022/02/04 11:34:26;;;;;;;;;;;20.00;99.90;;;;;;5072362;28;19951;-74
2022/02/04 11:57:05;;;;;;;;;;;20.00;99.90;;;;;;5072725;28;19916;-74
2022/02/04 11:59:44;;;;;;;;;;;20.00;99.90;;;;;;5104772;28;19931;-72
2022/02/04 12:02:27;;;;;;;;;;;20.00;99.90;;;;;;5072505;28;19942;-75
2022/02/04 12:07:36;;;;;;;;;;;19.90;99.90;;;;;;5071008;28;19954;-73
2022/02/04 12:10:12;;;;;;;;;;;19.90;99.90;;;;;;5071840;28;19947;-74
2022/02/04 12:12:59;;;;;;;;;;;19.90;99.90;;;;;;5072217;28;19909;-74
2022/02/04 12:15:43;;;;;;;;;;;;;;;;;;;;;
2022/02/04 12:18:13;;;;;;;;;;;19.90;99.90;;;;;;5071438;28;20410;-74
2022/02/04 12:20:46;;;;;;;;;;;19.90;99.90;;;;;;5071118;28;19912;-74
2022/02/04 12:23:40;;;;;;;;;;;19.90;99.90;;;;;;5071024;28;19920;-74
2022/02/04 12:26:12;;;;;;;;;;;19.90;99.90;;;;;;5068607;28;19956;-74
2022/02/04 12:28:41;;;;;;;;;;;19.90;99.90;;;;;;5071387;28;19915;-74
2022/02/04 12:31:21;;;;;;;;;;;19.90;99.90;;;;;;5071141;28;19909;-74
2022/02/04 12:33:49;;;;;;;;;;;19.90;99.90;;;;;;5070517;28;19908;-75
2022/02/04 12:36:20;;;;;;;;;;;19.90;99.90;;;;;;5070550;28;19920;-73
2022/02/04 12:38:48;;;;;;;;;;;19.90;99.90;;;;;;5071229;28;19908;-73
2022/02/04 12:41:26;;;;;;;;;;;19.90;99.90;;;;;;5071229;28;19908;-74
2022/02/04 12:43:57;;;;;;;;;;;20.00;99.90;;;;;;5070637;28;19916;-73
2022/02/04 12:46:24;;;;;;;;;;;19.90;99.90;;;;;;5070500;28;19912;-72
2022/02/04 12:48:58;;;;;;;;;;;19.90;99.90;;;;;;5070567;28;19923;-73
2022/02/04 12:51:35;;;;;;;;;;;19.90;99.90;;;;;;5070932;28;19915;-73
2022/02/04 12:54:02;;;;;;;;;;;20.00;99.90;;;;;;5070644;28;19952;-72
2022/02/04 12:56:38;;;;;;;;;;;19.90;99.90;;;;;;5070848;28;20318;-72
2022/02/04 13:02:19;;;;;;;;;;;19.90;99.90;;;;;;5070613;28;20012;-73
2022/02/04 13:07:48;;;;;;;;;;;19.80;99.90;;;;;;5071114;28;20073;-74
2022/02/04 13:10:19;;;;;;;;;;;19.70;99.90;;;;;;5070598;28;19917;-73
2022/02/04 13:12:53;;;;;;;;;;;19.70;99.90;;;;;;5068881;28;19939;-73
2022/02/04 13:15:20;;;;;;;;;;;19.70;99.90;;;;;;5070648;28;19959;-73
2022/02/04 13:17:47;;;;;;;;;;;19.70;99.90;;;;;;5070266;28;19919;-72
2022/02/04 13:20:21;;;;;;;;;;;19.70;99.90;;;;;;5070681;28;19916;-74
2022/02/04 13:22:55;;;;;;;;;;;19.80;99.90;;;;;;5070532;28;20515;-75
2022/02/04 13:25:23;;;;;;;;;;;19.80;99.90;;;;;;5070502;28;19940;-73
2022/02/04 13:28:00;;;;;;;;;;;19.80;99.90;;;;;;5069956;28;19999;-73
2022/02/04 13:30:28;;;;;;;;;;;19.70;99.90;;;;;;5070337;28;19909;-74
2022/02/04 13:32:54;;;;;;;;;;;19.70;99.90;;;;;;5070409;28;20001;-73
2022/02/04 13:35:40;;;;;;;;;;;19.70;99.90;;;;;;5070215;28;19908;-75
2022/02/04 13:38:23;;;;;;;;;;;19.70;99.90;;;;;;5070124;28;19924;-75
2022/02/04 13:41:00;;;;;;;;;;;19.70;99.90;;;;;;5069913;28;20359;-72
2022/02/04 13:43:39;;;;;;;;;;;19.70;99.90;;;;;;5070265;28;19921;-74
2022/02/04 13:46:18;;;;;;;;;;;19.70;99.90;;;;;;5070174;28;20641;-74
2022/02/04 13:48:59;;;;;;;;;;;19.80;99.90;;;;;;5070428;28;19919;-75
2022/02/04 13:52:02;;;;;;;;;;;19.80;99.90;;;;;;5070270;28;19961;-74
2022/02/04 13:57:16;;;;;;;;;;;19.80;99.90;;;;;;5070295;28;19909;-72
2022/02/04 13:59:56;;;;;;;;;;;19.80;99.90;;;;;;5105462;28;20297;-74
2022/02/04 14:02:26;;;;;;;;;;;19.80;99.90;;;;;;5074306;28;19912;-74
2022/02/04 14:05:00;;;;;;;;;;;19.70;99.90;;;;;;5073688;28;20355;-74
2022/02/04 14:07:34;;;;;;;;;;;19.70;99.90;;;;;;5074257;28;19913;-75
2022/02/04 14:10:08;;;;;;;;;;;19.80;99.90;;;;;;5073904;28;19908;-75
2022/02/04 14:12:35;;;;;;;;;;;19.80;99.90;;;;;;5074082;28;19908;-75
2022/02/04 14:15:02;;;;;;;;;;;19.90;99.90;;;;;;5074000;28;19913;-74
2022/02/04 14:17:29;;;;;;;;;;;19.80;99.90;;;;;;5074018;28;19908;-74
2022/02/04 14:19:55;;;;;;;;;;;19.60;99.90;;;;;;5073305;28;19909;-73
2022/02/04 14:22:22;;;;;;;;;;;19.50;99.90;;;;;;5106244;28;20421;-73
2022/02/04 14:24:49;;;;;;;;;;;19.30;99.90;;;;;;5073847;28;20012;-73
2022/02/04 14:27:16;;;;;;;;;;;19.30;99.90;;;;;;5074009;28;19909;-75
2022/02/04 14:30:06;;;;;;;;;;;19.30;99.90;;;;;;5073739;28;19913;-73
2022/02/04 14:32:46;;;;;;;;;;;19.30;99.90;;;;;;5073250;28;20610;-75
2022/02/04 14:35:45;;;;;;;;;;;19.40;99.90;;;;;;5073439;28;20338;-73
2022/02/04 14:52:00;;;;;;;;;;;19.60;99.90;;;;;;5073271;28;19919;-73
2022/02/04 14:58:33;;;;;;;;;;;19.60;99.90;;;;;;5073454;28;19909;-74
2022/02/04 15:00:40;;;;;;;;;;;19.70;99.90;;;;;;5064172;28;19920;-74
2022/02/04 15:05:39;;;;;;;;;;;19.80;99.90;;;;;;5073139;28;19908;-73
2022/02/04 15:08:11;;;;;;;;;;;19.90;99.90;;;;;;5072963;28;20351;-73
2022/02/04 15:10:39;;;;;;;;;;;19.90;99.90;;;;;;5072529;28;19918;-75
2022/02/04 15:13:12;;;;;;;;;;;19.90;99.90;;;;;;5072972;28;20020;-75
2022/02/04 15:15:40;;;;;;;;;;;19.90;99.90;;;;;;5073031;28;19935;-75
2022/02/04 15:18:07;;;;;;;;;;;19.80;99.90;;;;;;5073578;28;19908;-75
2022/02/04 15:20:37;;;;;;;;;;;19.80;99.90;;;;;;5075079;28;20315;-75
2022/02/04 15:23:05;;;;;;;;;;;19.70;99.90;;;;;;5074815;28;19924;-74
2022/02/04 15:25:32;;;;;;;;;;;19.80;99.90;;;;;;5074831;28;19920;-75
2022/02/04 15:28:34;;;;;;;;;;;19.70;99.90;;;;;;5074562;28;19963;-75
2022/02/04 15:30:49;;;;;;;;;;;19.70;99.90;;;;;;5074397;28;19938;-74
2022/02/04 15:33:15;;;;;;;;;;;19.70;99.90;;;;;;5074408;28;20339;-74
2022/02/04 15:35:42;;;;;;;;;;;19.70;99.90;;;;;;5074549;28;19999;-73
2022/02/04 15:38:10;;;;;;;;;;;19.80;99.90;;;;;;5074298;28;19909;-73
2022/02/04 15:40:42;;;;;;;;;;;19.80;99.90;;;;;;5074502;28;19909;-74
2022/02/04 15:43:10;;;;;;;;;;;19.80;99.90;;;;;;5074647;28;20332;-74
2022/02/04 15:54:20;;;;;;;;;;;19.00;99.90;;;;;;5042669;28;19924;-75
2022/02/04 15:56:46;;;;;;;;;;;18.20;99.90;;;;;;5072958;28;19909;-75
2022/02/04 16:06:39;;;;;;;;;;;17.40;99.90;;;;;;5074059;28;20271;-74
2022/02/04 16:09:05;;;;;;;;;;;17.40;99.90;;;;;;5073783;28;19992;-72
2022/02/04 16:11:46;;;;;;;;;;;17.40;99.90;;;;;;5073857;28;19913;-74
2022/02/04 16:14:18;;;;;;;;;;;17.40;99.90;;;;;;5073943;28;19931;-75
2022/02/04 16:16:57;;;;;;;;;;;17.50;99.90;;;;;;5073759;28;19908;-74
2022/02/04 16:28:38;;;;;;;;;;;17.20;99.90;;;;;;5073688;28;19909;-76
2022/02/04 16:29:55;;;;;;;;;;;17.20;99.90;;;;;;5062402;28;20366;-73
2022/02/04 16:32:22;;;;;;;;;;;17.10;99.90;;;;;;5073428;28;20011;-74
2022/02/04 16:34:54;;;;;;;;;;;17.10;99.90;;;;;;5072013;28;19909;-74
2022/02/04 16:37:36;;;;;;;;;;;17.10;99.90;;;;;;5073387;28;19962;-74
2022/02/04 16:40:15;;;;;;;;;;;17.20;99.90;;;;;;5073027;28;19962;-74
2022/02/04 16:42:43;;;;;;;;;;;17.10;99.90;;;;;;5073187;28;20357;-73
2022/02/04 16:45:10;;;;;;;;;;;17.10;99.90;;;;;;5073050;28;20001;-75
2022/02/04 16:47:36;;;;;;;;;;;17.10;99.90;;;;;;5073463;28;19967;-75
2022/02/04 16:50:05;;;;;;;;;;;17.00;99.90;;;;;;5072821;28;19908;-75
2022/02/04 16:52:31;;;;;;;;;;;17.00;99.90;;;;;;5072875;28;20007;-75
2022/02/04 16:54:58;;;;;;;;;;;17.00;99.90;;;;;;5072912;28;20275;-75
2022/02/04 16:57:25;;;;;;;;;;;17.00;99.90;;;;;;5072898;28;19923;-75
2022/02/04 16:59:53;;;;;;;;;;;17.10;99.90;;;;;;5072626;28;19924;-74
2022/02/04 17:02:20;;;;;;;;;;;17.10;99.90;;;;;;5072682;28;19916;-74
2022/02/04 17:04:46;;;;;;;;;;;17.00;99.90;;;;;;5072922;28;19908;-75
2022/02/04 17:07:23;;;;;;;;;;;17.10;99.90;;;;;;5072759;28;19909;-76
2022/02/04 17:09:52;;;;;;;;;;;16.90;99.90;;;;;;5072952;28;19915;-75
2022/02/04 17:12:28;;;;;;;;;;;17.00;99.90;;;;;;5072716;28;20004;-76
2022/02/04 17:14:55;;;;;;;;;;;17.00;99.90;;;;;;5072891;28;19909;-75
2022/02/04 17:17:24;;;;;;;;;;;16.90;99.90;;;;;;5072450;28;19916;-76
2022/02/04 17:20:13;;;;;;;;;;;16.90;99.90;;;;;;5072520;28;19912;-75
2022/02/04 17:22:40;;;;;;;;;;;16.90;99.90;;;;;;5072543;28;19958;-76
2022/02/04 17:25:09;;;;;;;;;;;16.80;99.90;;;;;;5072591;28;19954;-75
2022/02/04 17:27:37;;;;;;;;;;;16.80;99.90;;;;;;5072527;28;19932;-75
2022/02/04 17:30:05;;;;;;;;;;;16.90;99.90;;;;;;5072191;28;19971;-74
2022/02/04 17:32:32;;;;;;;;;;;16.90;99.90;;;;;;5071733;28;19913;-74
2022/02/04 17:34:58;;;;;;;;;;;16.90;99.90;;;;;;5072173;28;20279;-74
2022/02/04 17:37:25;;;;;;;;;;;16.90;99.90;;;;;;5072565;28;19912;-75
2022/02/04 17:39:54;;;;;;;;;;;16.90;99.90;;;;;;5072238;28;19913;-75
2022/02/04 17:42:24;;;;;;;;;;;17.00;99.90;;;;;;5072258;28;19940;-75
2022/02/04 17:44:51;;;;;;;;;;;17.20;99.90;;;;;;5072490;28;20328;-74
2022/02/04 17:47:19;;;;;;;;;;;17.20;99.90;;;;;;5072170;28;19959;-75
2022/02/04 17:52:20;;;;;;;;;;;17.30;99.90;;;;;;5072318;28;20383;-75
2022/02/04 17:55:02;;;;;;;;;;;17.30;99.90;;;;;;5104913;28;19908;-74
2022/02/04 17:57:41;;;;;;;;;;;17.30;99.90;;;;;;5072479;28;19958;-75
2022/02/04 18:05:38;;;;;;;;;;;17.50;99.90;;;;;;5072230;28;19964;-74
2022/02/04 18:08:05;;;;;;;;;;;17.30;99.90;;;;;;5072041;28;20003;-73
2022/02/04 18:10:32;;;;;;;;;;;17.30;99.90;;;;;;5071044;28;19965;-74
2022/02/04 18:12:59;;;;;;;;;;;17.40;99.90;;;;;;5072057;28;20283;-74
2022/02/04 18:15:26;;;;;;;;;;;17.40;99.90;;;;;;5072183;28;19908;-74
2022/02/04 18:17:53;;;;;;;;;;;17.60;99.90;;;;;;5071992;28;19924;-74
2022/02/04 18:20:22;;;;;;;;;;;17.80;99.90;;;;;;5072157;28;19908;-74
2022/02/04 18:22:53;;;;;;;;;;;17.90;99.90;;;;;;5070849;28;19912;-74
2022/02/04 18:25:19;;;;;;;;;;;17.90;99.90;;;;;;5071971;28;20003;-75
2022/02/04 18:27:48;;;;;;;;;;;18.00;99.90;;;;;;5071725;28;20361;-74
2022/02/04 18:30:16;;;;;;;;;;;18.10;99.90;;;;;;5071950;28;19997;-74
2022/02/04 18:32:46;;;;;;;;;;;18.20;99.90;;;;;;5070612;28;19917;-74
2022/02/04 18:35:17;;;;;;;;;;;18.30;99.90;;;;;;5071896;28;19998;-74
2022/02/04 18:37:51;;;;;;;;;;;18.30;99.90;;;;;;5071903;28;19914;-74
2022/02/04 18:45:51;;;;;;;;;;;18.40;99.90;;;;;;5074918;28;20282;-73
2022/02/04 18:48:22;;;;;;;;;;;18.40;99.90;;;;;;5075339;28;20011;-73
2022/02/04 18:51:05;;;;;;;;;;;18.40;99.90;;;;;;5075293;28;20003;-74
2022/02/04 18:56:30;;;;;;;;;;;18.40;99.90;;;;;;5075131;28;20286;-74
2022/02/04 18:58:57;;;;;;;;;;;18.50;99.90;;;;;;5075266;28;20049;-73
2022/02/04 19:01:27;;;;;;;;;;;18.40;99.90;;;;;;5075288;28;19915;-73
2022/02/04 19:03:57;;;;;;;;;;;18.40;99.90;;;;;;5074626;28;20013;-73
2022/02/04 19:06:33;;;;;;;;;;;18.40;99.90;;;;;;5075157;28;19986;-73
2022/02/04 19:09:03;;;;;;;;;;;18.50;99.90;;;;;;5075185;28;19944;-74
2022/02/04 19:11:40;;;;;;;;;;;18.50;99.90;;;;;;5075168;28;19999;-74
2022/02/04 19:14:12;;;;;;;;;;;18.50;99.90;;;;;;5074668;28;19920;-74
2022/02/04 19:17:03;;;;;;;;;;;18.50;99.90;;;;;;5074958;28;19908;-74
2022/02/04 19:20:23;;;;;;;;;;;18.60;99.90;;;;;;5075228;28;19909;-74
2022/02/04 19:22:30;;;;;;;;;;;18.60;99.90;;;;;;5066400;28;19909;-74
2022/02/04 19:24:59;;;;;;;;;;;18.70;99.90;;;;;;5074705;28;20336;-74
2022/02/04 19:27:26;;;;;;;;;;;18.70;99.90;;;;;;5074490;28;20549;-74
2022/02/04 19:29:55;;;;;;;;;;;18.60;99.90;;;;;;5074322;28;19908;-74
2022/02/04 19:32:22;;;;;;;;;;;18.60;99.90;;;;;;5074501;28;20005;-74
2022/02/04 19:34:49;;;;;;;;;;;18.70;99.90;;;;;;5074921;28;19909;-73
2022/02/04 19:37:15;;;;;;;;;;;18.70;99.90;;;;;;5074789;28;19909;-73
2022/02/04 19:39:45;;;;;;;;;;;18.70;99.90;;;;;;5074575;28;19919;-74
2022/02/04 19:42:28;;;;;;;;;;;18.70;99.90;;;;;;5074434;28;19917;-75
2022/02/04 19:44:59;;;;;;;;;;;18.70;99.90;;;;;;5074323;28;19916;-72
2022/02/04 19:47:34;;;;;;;;;;;18.70;99.90;;;;;;5074034;28;19987;-74
2022/02/04 20:17:37;;;;;;;;;;;19.00;99.90;;;;;;5065309;28;19909;-73
2022/02/04 20:25:21;;;;;;;;;;;19.10;99.90;;;;;;5073789;28;19997;-73
2022/02/04 20:27:47;;;;;;;;;;;18.90;99.90;;;;;;5073382;28;20268;-73
2022/02/04 20:30:14;;;;;;;;;;;18.70;99.90;;;;;;5073536;28;19913;-73
2022/02/04 20:32:41;;;;;;;;;;;18.60;99.90;;;;;;5073454;28;20278;-74
2022/02/04 20:35:08;;;;;;;;;;;18.60;99.90;;;;;;5073559;28;19962;-74
2022/02/04 20:37:35;;;;;;;;;;;18.60;99.90;;;;;;5073459;28;19995;-73
2022/02/04 20:40:15;;;;;;;;;;;18.60;99.90;;;;;;5073228;28;19908;-75
2022/02/04 20:42:41;;;;;;;;;;;18.60;99.90;;;;;;5073086;28;19919;-74
2022/02/04 20:45:08;;;;;;;;;;;18.70;99.90;;;;;;5073168;28;20325;-72
2022/02/04 20:47:40;;;;;;;;;;;18.80;99.90;;;;;;5073076;28;19916;-72
2022/02/04 20:50:07;;;;;;;;;;;19.00;99.90;;;;;;5072940;28;19919;-71
2022/02/04 20:52:34;;;;;;;;;;;19.10;99.90;;;;;;5073144;28;19919;-72
2022/02/04 20:55:04;;;;;;;;;;;19.20;99.90;;;;;;5073057;28;19908;-73
2022/02/04 20:57:31;;;;;;;;;;;19.30;99.90;;;;;;5073547;28;19909;-73
2022/02/04 20:59:58;;;;;;;;;;;19.30;99.90;;;;;;5072650;28;19921;-74
2022/02/04 21:02:25;;;;;;;;;;;19.30;99.90;;;;;;5072751;28;20363;-74
2022/02/04 21:04:52;;;;;;;;;;;19.40;99.90;;;;;;5073078;28;19981;-74
2022/02/04 21:07:46;;;;;;;;;;;19.50;99.90;;;;;;5072657;28;19963;-74
2022/02/04 21:15:45;;;;;;;;;;;19.80;99.90;;;;;;5072777;28;19935;-74
2022/02/04 21:18:12;;;;;;;;;;;20.00;99.90;;;;;;5072340;28;19909;-73
2022/02/04 21:20:40;;;;;;;;;;;19.90;99.90;;;;;;5072618;28;19991;-73
2022/02/04 21:23:10;;;;;;;;;;;20.00;99.90;;;;;;5072596;28;19917;-74
2022/02/04 21:25:38;;;;;;;;;;;20.20;99.90;;;;;;5072914;28;19962;-74
2022/02/04 21:28:10;;;;;;;;;;;20.10;99.90;;;;;;5072272;28;19909;-74
2022/02/04 21:30:37;;;;;;;;;;;20.10;99.90;;;;;;5072252;28;19909;-74